sensor_id;sensor_type;location;lat;lon;timestamp;P1;durP1;ratioP1;P2;durP2;ratioP2
23410;SDS011;11878;51.774;7.220;2023-06-24T00:02:45;8.37;;;5.10;;
23410;SDS011;11878;51.774;7.220;2023-06-24T00:05:47;8.60;;;4.10;;
23410;SDS011;11878;51.774;7.220;2023-06-24T00:08:51;8.10;;;5.17;;
23410;SDS011;11878;51.774;7.220;2023-06-24T00:11:59;6.43;;;4.63;;
23410;SDS011;11878;51.774;7.220;2023-06-24T00:15:01;8.13;;;4.93;;
23410;SDS011;11878;51.774;7.220;2023-06-24T00:18:02;8.73;;;4.67;;
23410;SDS011;11878;51.774;7.220;2023-06-24T00:21:08;6.30;;;4.47;;
23410;SDS011;11878;51.774;7.220;2023-06-24T00:27:41;10.13;;;4.87;;
23410;SDS011;11878;51.774;7.220;2023-06-24T00:30:43;6.90;;;4.67;;
23410;SDS011;11878;51.774;7.220;2023-06-24T00:33:47;7.37;;;5.13;;
23410;SDS011;11878;51.774;7.220;2023-06-24T00:36:51;6.53;;;5.23;;
23410;SDS011;11878;51.774;7.220;2023-06-24T00:39:53;14.70;;;6.03;;
23410;SDS011;11878;51.774;7.220;2023-06-24T00:42:55;6.60;;;5.13;;
23410;SDS011;11878;51.774;7.220;2023-06-24T00:45:57;8.40;;;5.87;;
23410;SDS011;11878;51.774;7.220;2023-06-24T00:48:59;9.20;;;5.53;;
23410;SDS011;11878;51.774;7.220;2023-06-24T00:52:04;9.80;;;5.67;;
23410;SDS011;11878;51.774;7.220;2023-06-24T00:55:06;9.80;;;5.20;;
23410;SDS011;11878;51.774;7.220;2023-06-24T00:58:08;8.50;;;4.97;;
23410;SDS011;11878;51.774;7.220;2023-06-24T01:01:10;8.10;;;5.27;;
23410;SDS011;11878;51.774;7.220;2023-06-24T01:04:12;8.60;;;5.70;;
23410;SDS011;11878;51.774;7.220;2023-06-24T01:07:14;9.37;;;5.30;;
23410;SDS011;11878;51.774;7.220;2023-06-24T01:10:17;9.10;;;5.70;;
23410;SDS011;11878;51.774;7.220;2023-06-24T01:13:20;8.10;;;5.47;;
23410;SDS011;11878;51.774;7.220;2023-06-24T01:17:09;11.97;;;5.30;;
23410;SDS011;11878;51.774;7.220;2023-06-24T01:20:09;9.70;;;4.87;;
23410;SDS011;11878;51.774;7.220;2023-06-24T01:23:24;8.33;;;5.57;;
23410;SDS011;11878;51.774;7.220;2023-06-24T01:27:02;10.40;;;5.60;;
23410;SDS011;11878;51.774;7.220;2023-06-24T01:30:30;9.47;;;6.07;;
23410;SDS011;11878;51.774;7.220;2023-06-24T01:33:41;8.37;;;5.43;;
23410;SDS011;11878;51.774;7.220;2023-06-24T01:40:28;9.80;;;5.43;;
23410;SDS011;11878;51.774;7.220;2023-06-24T01:43:35;7.50;;;5.07;;
23410;SDS011;11878;51.774;7.220;2023-06-24T01:46:38;8.57;;;6.13;;
23410;SDS011;11878;51.774;7.220;2023-06-24T01:49:42;10.03;;;6.10;;
23410;SDS011;11878;51.774;7.220;2023-06-24T01:52:46;8.93;;;6.13;;
23410;SDS011;11878;51.774;7.220;2023-06-24T01:55:48;13.10;;;5.87;;
23410;SDS011;11878;51.774;7.220;2023-06-24T01:58:53;10.67;;;6.37;;
23410;SDS011;11878;51.774;7.220;2023-06-24T02:01:57;10.73;;;5.90;;
23410;SDS011;11878;51.774;7.220;2023-06-24T02:05:02;7.40;;;5.17;;
23410;SDS011;11878;51.774;7.220;2023-06-24T02:08:07;10.90;;;5.50;;
23410;SDS011;11878;51.774;7.220;2023-06-24T02:11:10;10.33;;;6.10;;
23410;SDS011;11878;51.774;7.220;2023-06-24T02:14:14;12.57;;;5.13;;
23410;SDS011;11878;51.774;7.220;2023-06-24T02:17:18;8.90;;;5.53;;
23410;SDS011;11878;51.774;7.220;2023-06-24T02:20:21;8.80;;;5.03;;
23410;SDS011;11878;51.774;7.220;2023-06-24T02:23:28;8.83;;;5.00;;
23410;SDS011;11878;51.774;7.220;2023-06-24T02:26:31;8.50;;;5.70;;
23410;SDS011;11878;51.774;7.220;2023-06-24T02:29:33;7.97;;;4.93;;
23410;SDS011;11878;51.774;7.220;2023-06-24T02:32:37;6.17;;;4.07;;
23410;SDS011;11878;51.774;7.220;2023-06-24T02:35:39;9.07;;;4.53;;
23410;SDS011;11878;51.774;7.220;2023-06-24T02:38:43;6.43;;;4.77;;
23410;SDS011;11878;51.774;7.220;2023-06-24T02:41:45;7.43;;;4.50;;
23410;SDS011;11878;51.774;7.220;2023-06-24T02:44:49;8.47;;;4.33;;
23410;SDS011;11878;51.774;7.220;2023-06-24T02:47:51;6.80;;;4.63;;
23410;SDS011;11878;51.774;7.220;2023-06-24T02:50:54;7.73;;;4.17;;
23410;SDS011;11878;51.774;7.220;2023-06-24T02:53:57;7.50;;;5.00;;
23410;SDS011;11878;51.774;7.220;2023-06-24T02:57:19;6.20;;;4.70;;
23410;SDS011;11878;51.774;7.220;2023-06-24T03:00:41;9.63;;;5.17;;
23410;SDS011;11878;51.774;7.220;2023-06-24T03:03:43;9.57;;;5.20;;
23410;SDS011;11878;51.774;7.220;2023-06-24T03:06:51;9.17;;;5.40;;
23410;SDS011;11878;51.774;7.220;2023-06-24T03:09:54;10.63;;;5.20;;
23410;SDS011;11878;51.774;7.220;2023-06-24T03:12:56;8.37;;;4.90;;
23410;SDS011;11878;51.774;7.220;2023-06-24T03:16:07;8.27;;;4.90;;
23410;SDS011;11878;51.774;7.220;2023-06-24T03:19:21;8.77;;;5.37;;
23410;SDS011;11878;51.774;7.220;2023-06-24T03:22:24;7.70;;;5.27;;
23410;SDS011;11878;51.774;7.220;2023-06-24T03:25:26;6.90;;;4.63;;
23410;SDS011;11878;51.774;7.220;2023-06-24T03:28:30;7.40;;;4.87;;
23410;SDS011;11878;51.774;7.220;2023-06-24T03:31:42;8.03;;;4.33;;
23410;SDS011;11878;51.774;7.220;2023-06-24T03:34:48;10.20;;;5.27;;
23410;SDS011;11878;51.774;7.220;2023-06-24T03:37:50;7.03;;;4.77;;
23410;SDS011;11878;51.774;7.220;2023-06-24T03:40:53;7.53;;;5.47;;
23410;SDS011;11878;51.774;7.220;2023-06-24T03:43:55;8.00;;;4.87;;
23410;SDS011;11878;51.774;7.220;2023-06-24T03:46:58;11.67;;;5.67;;
23410;SDS011;11878;51.774;7.220;2023-06-24T03:50:00;7.67;;;4.60;;
23410;SDS011;11878;51.774;7.220;2023-06-24T03:53:03;10.13;;;5.43;;
23410;SDS011;11878;51.774;7.220;2023-06-24T03:56:06;8.63;;;5.60;;
23410;SDS011;11878;51.774;7.220;2023-06-24T03:59:08;9.77;;;6.43;;
23410;SDS011;11878;51.774;7.220;2023-06-24T04:02:10;9.53;;;6.37;;
23410;SDS011;11878;51.774;7.220;2023-06-24T04:05:12;10.87;;;6.37;;
23410;SDS011;11878;51.774;7.220;2023-06-24T04:08:16;9.83;;;6.50;;
23410;SDS011;11878;51.774;7.220;2023-06-24T04:11:19;9.97;;;5.60;;
23410;SDS011;11878;51.774;7.220;2023-06-24T04:14:20;10.07;;;6.40;;
23410;SDS011;11878;51.774;7.220;2023-06-24T04:17:23;9.10;;;6.47;;
23410;SDS011;11878;51.774;7.220;2023-06-24T04:20:25;9.63;;;6.67;;
23410;SDS011;11878;51.774;7.220;2023-06-24T04:23:28;11.23;;;6.53;;
23410;SDS011;11878;51.774;7.220;2023-06-24T04:26:30;9.77;;;6.07;;
23410;SDS011;11878;51.774;7.220;2023-06-24T04:29:32;11.57;;;7.00;;
23410;SDS011;11878;51.774;7.220;2023-06-24T04:32:34;12.53;;;6.00;;
23410;SDS011;11878;51.774;7.220;2023-06-24T04:35:37;8.27;;;6.10;;
23410;SDS011;11878;51.774;7.220;2023-06-24T04:38:39;11.93;;;7.17;;
23410;SDS011;11878;51.774;7.220;2023-06-24T04:41:42;9.47;;;6.50;;
23410;SDS011;11878;51.774;7.220;2023-06-24T04:44:44;11.03;;;6.43;;
23410;SDS011;11878;51.774;7.220;2023-06-24T04:47:46;10.40;;;5.90;;
23410;SDS011;11878;51.774;7.220;2023-06-24T04:50:48;14.43;;;6.97;;
23410;SDS011;11878;51.774;7.220;2023-06-24T04:53:50;9.57;;;6.83;;
23410;SDS011;11878;51.774;7.220;2023-06-24T04:56:52;10.00;;;6.83;;
23410;SDS011;11878;51.774;7.220;2023-06-24T04:59:56;10.77;;;5.93;;
23410;SDS011;11878;51.774;7.220;2023-06-24T05:02:58;9.27;;;6.23;;
23410;SDS011;11878;51.774;7.220;2023-06-24T05:06:00;11.40;;;7.23;;
23410;SDS011;11878;51.774;7.220;2023-06-24T05:09:02;9.73;;;7.17;;
23410;SDS011;11878;51.774;7.220;2023-06-24T05:12:04;15.80;;;8.40;;
23410;SDS011;11878;51.774;7.220;2023-06-24T05:15:07;13.70;;;8.47;;
23410;SDS011;11878;51.774;7.220;2023-06-24T05:18:09;10.70;;;7.57;;
23410;SDS011;11878;51.774;7.220;2023-06-24T05:21:11;13.67;;;7.87;;
23410;SDS011;11878;51.774;7.220;2023-06-24T05:24:13;16.63;;;8.03;;
23410;SDS011;11878;51.774;7.220;2023-06-24T05:27:15;12.90;;;8.00;;
23410;SDS011;11878;51.774;7.220;2023-06-24T05:30:18;12.17;;;7.87;;
23410;SDS011;11878;51.774;7.220;2023-06-24T05:33:20;15.30;;;8.87;;
23410;SDS011;11878;51.774;7.220;2023-06-24T05:36:22;15.83;;;7.80;;
23410;SDS011;11878;51.774;7.220;2023-06-24T05:39:24;11.77;;;7.77;;
23410;SDS011;11878;51.774;7.220;2023-06-24T05:42:26;13.70;;;8.13;;
23410;SDS011;11878;51.774;7.220;2023-06-24T05:45:28;10.77;;;7.53;;
23410;SDS011;11878;51.774;7.220;2023-06-24T05:48:30;15.30;;;8.37;;
23410;SDS011;11878;51.774;7.220;2023-06-24T05:51:32;10.80;;;7.63;;
23410;SDS011;11878;51.774;7.220;2023-06-24T05:54:33;11.97;;;7.70;;
23410;SDS011;11878;51.774;7.220;2023-06-24T05:57:35;16.30;;;8.57;;
23410;SDS011;11878;51.774;7.220;2023-06-24T06:00:37;11.27;;;6.83;;
23410;SDS011;11878;51.774;7.220;2023-06-24T06:03:39;10.87;;;7.63;;
23410;SDS011;11878;51.774;7.220;2023-06-24T06:06:41;11.23;;;7.10;;
23410;SDS011;11878;51.774;7.220;2023-06-24T06:09:43;14.27;;;7.43;;
23410;SDS011;11878;51.774;7.220;2023-06-24T06:12:45;14.07;;;8.30;;
23410;SDS011;11878;51.774;7.220;2023-06-24T06:15:47;15.37;;;7.33;;
23410;SDS011;11878;51.774;7.220;2023-06-24T06:18:49;11.73;;;7.27;;
23410;SDS011;11878;51.774;7.220;2023-06-24T06:21:51;12.30;;;6.90;;
23410;SDS011;11878;51.774;7.220;2023-06-24T06:24:53;10.70;;;7.27;;
23410;SDS011;11878;51.774;7.220;2023-06-24T06:27:55;9.30;;;7.20;;
23410;SDS011;11878;51.774;7.220;2023-06-24T06:30:57;13.30;;;7.33;;
23410;SDS011;11878;51.774;7.220;2023-06-24T06:33:59;14.77;;;7.13;;
23410;SDS011;11878;51.774;7.220;2023-06-24T06:37:01;9.83;;;7.10;;
23410;SDS011;11878;51.774;7.220;2023-06-24T06:40:03;13.10;;;7.30;;
23410;SDS011;11878;51.774;7.220;2023-06-24T06:43:06;9.47;;;5.93;;
23410;SDS011;11878;51.774;7.220;2023-06-24T06:46:08;14.27;;;6.50;;
23410;SDS011;11878;51.774;7.220;2023-06-24T06:49:10;8.57;;;6.30;;
23410;SDS011;11878;51.774;7.220;2023-06-24T06:52:12;9.67;;;6.23;;
23410;SDS011;11878;51.774;7.220;2023-06-24T06:55:18;9.80;;;7.07;;
23410;SDS011;11878;51.774;7.220;2023-06-24T06:58:20;10.10;;;6.73;;
23410;SDS011;11878;51.774;7.220;2023-06-24T07:01:22;9.43;;;6.77;;
23410;SDS011;11878;51.774;7.220;2023-06-24T07:04:23;13.75;;;6.93;;
23410;SDS011;11878;51.774;7.220;2023-06-24T07:07:26;11.30;;;7.20;;
23410;SDS011;11878;51.774;7.220;2023-06-24T07:10:28;15.25;;;8.30;;
23410;SDS011;11878;51.774;7.220;2023-06-24T07:13:30;10.82;;;7.03;;
23410;SDS011;11878;51.774;7.220;2023-06-24T07:16:32;12.67;;;7.77;;
23410;SDS011;11878;51.774;7.220;2023-06-24T07:19:34;13.35;;;7.10;;
23410;SDS011;11878;51.774;7.220;2023-06-24T07:22:36;12.55;;;7.25;;
23410;SDS011;11878;51.774;7.220;2023-06-24T07:25:38;8.80;;;6.35;;
23410;SDS011;11878;51.774;7.220;2023-06-24T07:28:39;13.27;;;7.07;;
23410;SDS011;11878;51.774;7.220;2023-06-24T07:31:41;10.20;;;6.93;;
23410;SDS011;11878;51.774;7.220;2023-06-24T07:34:43;9.52;;;6.35;;
23410;SDS011;11878;51.774;7.220;2023-06-24T07:37:45;12.03;;;7.83;;
23410;SDS011;11878;51.774;7.220;2023-06-24T07:40:47;12.30;;;6.40;;
23410;SDS011;11878;51.774;7.220;2023-06-24T07:43:49;12.82;;;7.80;;
23410;SDS011;11878;51.774;7.220;2023-06-24T07:46:51;16.85;;;8.52;;
23410;SDS011;11878;51.774;7.220;2023-06-24T07:49:53;14.68;;;8.20;;
23410;SDS011;11878;51.774;7.220;2023-06-24T07:52:54;15.20;;;9.07;;
23410;SDS011;11878;51.774;7.220;2023-06-24T07:55:56;11.35;;;7.78;;
23410;SDS011;11878;51.774;7.220;2023-06-24T07:58:58;13.68;;;8.35;;
23410;SDS011;11878;51.774;7.220;2023-06-24T08:02:00;14.77;;;8.02;;
23410;SDS011;11878;51.774;7.220;2023-06-24T08:05:02;13.60;;;8.50;;
23410;SDS011;11878;51.774;7.220;2023-06-24T08:08:05;14.30;;;8.63;;
23410;SDS011;11878;51.774;7.220;2023-06-24T08:11:07;14.25;;;8.32;;
23410;SDS011;11878;51.774;7.220;2023-06-24T08:14:09;15.30;;;8.45;;
23410;SDS011;11878;51.774;7.220;2023-06-24T08:17:11;18.80;;;10.13;;
23410;SDS011;11878;51.774;7.220;2023-06-24T08:20:12;14.93;;;9.35;;
23410;SDS011;11878;51.774;7.220;2023-06-24T08:23:15;16.40;;;9.80;;
23410;SDS011;11878;51.774;7.220;2023-06-24T08:26:17;15.32;;;9.80;;
23410;SDS011;11878;51.774;7.220;2023-06-24T08:29:22;14.43;;;9.68;;
23410;SDS011;11878;51.774;7.220;2023-06-24T08:32:24;17.38;;;10.32;;
23410;SDS011;11878;51.774;7.220;2023-06-24T08:35:26;16.23;;;9.85;;
23410;SDS011;11878;51.774;7.220;2023-06-24T08:38:28;19.33;;;9.65;;
23410;SDS011;11878;51.774;7.220;2023-06-24T08:41:30;16.77;;;9.65;;
23410;SDS011;11878;51.774;7.220;2023-06-24T08:44:32;14.75;;;9.13;;
23410;SDS011;11878;51.774;7.220;2023-06-24T08:47:34;12.85;;;8.52;;
23410;SDS011;11878;51.774;7.220;2023-06-24T08:50:39;13.95;;;9.07;;
23410;SDS011;11878;51.774;7.220;2023-06-24T08:53:45;17.60;;;11.52;;
23410;SDS011;11878;51.774;7.220;2023-06-24T08:56:48;16.90;;;10.73;;
23410;SDS011;11878;51.774;7.220;2023-06-24T08:59:51;19.20;;;10.00;;
23410;SDS011;11878;51.774;7.220;2023-06-24T09:02:55;15.15;;;9.52;;
23410;SDS011;11878;51.774;7.220;2023-06-24T09:05:57;18.35;;;10.88;;
23410;SDS011;11878;51.774;7.220;2023-06-24T09:08:59;19.60;;;10.40;;
23410;SDS011;11878;51.774;7.220;2023-06-24T09:12:04;18.50;;;9.88;;
23410;SDS011;11878;51.774;7.220;2023-06-24T09:15:16;19.42;;;10.35;;
23410;SDS011;11878;51.774;7.220;2023-06-24T09:18:17;19.80;;;10.30;;
23410;SDS011;11878;51.774;7.220;2023-06-24T09:24:32;20.30;;;10.15;;
23410;SDS011;11878;51.774;7.220;2023-06-24T09:27:37;17.20;;;10.05;;
23410;SDS011;11878;51.774;7.220;2023-06-24T09:30:40;15.45;;;10.05;;
23410;SDS011;11878;51.774;7.220;2023-06-24T09:33:42;16.75;;;9.90;;
23410;SDS011;11878;51.774;7.220;2023-06-24T09:36:44;17.70;;;9.88;;
23410;SDS011;11878;51.774;7.220;2023-06-24T09:39:46;13.07;;;8.68;;
23410;SDS011;11878;51.774;7.220;2023-06-24T09:42:55;17.58;;;8.15;;
23410;SDS011;11878;51.774;7.220;2023-06-24T09:45:57;13.68;;;7.03;;
23410;SDS011;11878;51.774;7.220;2023-06-24T09:49:00;15.45;;;6.30;;
23410;SDS011;11878;51.774;7.220;2023-06-24T09:52:02;12.13;;;6.57;;
23410;SDS011;11878;51.774;7.220;2023-06-24T09:55:07;14.95;;;7.43;;
23410;SDS011;11878;51.774;7.220;2023-06-24T09:58:11;11.20;;;6.30;;
23410;SDS011;11878;51.774;7.220;2023-06-24T10:05:19;10.35;;;6.05;;
23410;SDS011;11878;51.774;7.220;2023-06-24T10:08:21;13.48;;;5.95;;
23410;SDS011;11878;51.774;7.220;2023-06-24T10:11:23;6.32;;;4.50;;
23410;SDS011;11878;51.774;7.220;2023-06-24T10:14:25;7.43;;;4.57;;
23410;SDS011;11878;51.774;7.220;2023-06-24T10:17:28;10.73;;;5.75;;
23410;SDS011;11878;51.774;7.220;2023-06-24T10:20:31;8.32;;;4.78;;
23410;SDS011;11878;51.774;7.220;2023-06-24T10:23:43;8.10;;;4.22;;
23410;SDS011;11878;51.774;7.220;2023-06-24T10:27:00;6.68;;;3.50;;
23410;SDS011;11878;51.774;7.220;2023-06-24T10:30:03;6.75;;;3.83;;
23410;SDS011;11878;51.774;7.220;2023-06-24T10:33:09;5.22;;;3.63;;
23410;SDS011;11878;51.774;7.220;2023-06-24T10:36:31;5.40;;;3.40;;
23410;SDS011;11878;51.774;7.220;2023-06-24T10:39:40;8.07;;;4.40;;
23410;SDS011;11878;51.774;7.220;2023-06-24T10:42:58;7.63;;;3.85;;
23410;SDS011;11878;51.774;7.220;2023-06-24T10:46:06;5.50;;;3.00;;
23410;SDS011;11878;51.774;7.220;2023-06-24T10:49:17;6.60;;;2.72;;
23410;SDS011;11878;51.774;7.220;2023-06-24T10:52:19;4.30;;;2.58;;
23410;SDS011;11878;51.774;7.220;2023-06-24T10:55:25;6.50;;;2.78;;
23410;SDS011;11878;51.774;7.220;2023-06-24T10:58:27;7.25;;;3.00;;
23410;SDS011;11878;51.774;7.220;2023-06-24T11:01:29;3.88;;;2.60;;
23410;SDS011;11878;51.774;7.220;2023-06-24T11:04:32;5.63;;;2.92;;
23410;SDS011;11878;51.774;7.220;2023-06-24T11:07:34;4.28;;;2.30;;
23410;SDS011;11878;51.774;7.220;2023-06-24T11:10:42;6.22;;;3.05;;
23410;SDS011;11878;51.774;7.220;2023-06-24T11:13:47;7.13;;;2.60;;
23410;SDS011;11878;51.774;7.220;2023-06-24T11:16:50;5.15;;;2.85;;
23410;SDS011;11878;51.774;7.220;2023-06-24T11:19:57;8.88;;;2.92;;
23410;SDS011;11878;51.774;7.220;2023-06-24T11:22:59;2.95;;;2.00;;
23410;SDS011;11878;51.774;7.220;2023-06-24T11:26:02;3.72;;;2.33;;
23410;SDS011;11878;51.774;7.220;2023-06-24T11:29:11;3.97;;;2.58;;
23410;SDS011;11878;51.774;7.220;2023-06-24T11:32:13;4.30;;;2.47;;
23410;SDS011;11878;51.774;7.220;2023-06-24T11:35:15;4.53;;;2.38;;
23410;SDS011;11878;51.774;7.220;2023-06-24T11:38:17;3.50;;;2.45;;
23410;SDS011;11878;51.774;7.220;2023-06-24T11:41:20;4.00;;;2.25;;
23410;SDS011;11878;51.774;7.220;2023-06-24T11:44:26;9.40;;;2.15;;
23410;SDS011;11878;51.774;7.220;2023-06-24T11:47:30;4.20;;;2.33;;
23410;SDS011;11878;51.774;7.220;2023-06-24T11:50:35;3.92;;;2.08;;
23410;SDS011;11878;51.774;7.220;2023-06-24T11:53:42;3.55;;;2.30;;
23410;SDS011;11878;51.774;7.220;2023-06-24T11:56:52;4.22;;;2.40;;
23410;SDS011;11878;51.774;7.220;2023-06-24T11:59:54;4.28;;;2.10;;
23410;SDS011;11878;51.774;7.220;2023-06-24T12:02:57;4.60;;;2.20;;
23410;SDS011;11878;51.774;7.220;2023-06-24T12:06:01;5.78;;;2.53;;
23410;SDS011;11878;51.774;7.220;2023-06-24T12:09:03;4.03;;;2.25;;
23410;SDS011;11878;51.774;7.220;2023-06-24T12:12:07;5.00;;;2.35;;
23410;SDS011;11878;51.774;7.220;2023-06-24T12:15:11;3.72;;;1.98;;
23410;SDS011;11878;51.774;7.220;2023-06-24T12:18:15;3.90;;;1.83;;
23410;SDS011;11878;51.774;7.220;2023-06-24T12:21:17;5.78;;;1.63;;
23410;SDS011;11878;51.774;7.220;2023-06-24T12:24:19;3.63;;;1.77;;
23410;SDS011;11878;51.774;7.220;2023-06-24T12:27:21;4.28;;;1.55;;
23410;SDS011;11878;51.774;7.220;2023-06-24T12:30:24;7.57;;;2.08;;
23410;SDS011;11878;51.774;7.220;2023-06-24T12:33:26;4.47;;;1.60;;
23410;SDS011;11878;51.774;7.220;2023-06-24T12:36:31;2.65;;;1.70;;
23410;SDS011;11878;51.774;7.220;2023-06-24T12:39:34;3.08;;;1.75;;
23410;SDS011;11878;51.774;7.220;2023-06-24T12:42:36;4.95;;;1.52;;
23410;SDS011;11878;51.774;7.220;2023-06-24T12:45:38;3.03;;;1.88;;
23410;SDS011;11878;51.774;7.220;2023-06-24T12:48:40;3.25;;;1.73;;
23410;SDS011;11878;51.774;7.220;2023-06-24T12:51:42;2.42;;;1.50;;
23410;SDS011;11878;51.774;7.220;2023-06-24T12:54:44;2.47;;;1.50;;
23410;SDS011;11878;51.774;7.220;2023-06-24T12:57:46;3.15;;;1.70;;
23410;SDS011;11878;51.774;7.220;2023-06-24T13:00:48;2.63;;;1.40;;
23410;SDS011;11878;51.774;7.220;2023-06-24T13:03:50;4.05;;;1.70;;
23410;SDS011;11878;51.774;7.220;2023-06-24T13:06:52;2.65;;;1.40;;
23410;SDS011;11878;51.774;7.220;2023-06-24T13:09:54;3.45;;;1.45;;
23410;SDS011;11878;51.774;7.220;2023-06-24T13:12:56;5.32;;;1.83;;
23410;SDS011;11878;51.774;7.220;2023-06-24T13:15:58;5.97;;;1.95;;
23410;SDS011;11878;51.774;7.220;2023-06-24T13:19:00;2.65;;;1.63;;
23410;SDS011;11878;51.774;7.220;2023-06-24T13:22:02;3.72;;;2.05;;
23410;SDS011;11878;51.774;7.220;2023-06-24T13:25:04;3.72;;;1.80;;
23410;SDS011;11878;51.774;7.220;2023-06-24T13:28:06;3.95;;;2.05;;
23410;SDS011;11878;51.774;7.220;2023-06-24T13:31:08;4.88;;;1.98;;
23410;SDS011;11878;51.774;7.220;2023-06-24T13:34:11;3.00;;;1.80;;
23410;SDS011;11878;51.774;7.220;2023-06-24T13:37:13;2.47;;;1.60;;
23410;SDS011;11878;51.774;7.220;2023-06-24T13:40:17;3.42;;;1.83;;
23410;SDS011;11878;51.774;7.220;2023-06-24T13:43:20;5.10;;;2.08;;
23410;SDS011;11878;51.774;7.220;2023-06-24T13:46:22;3.28;;;1.92;;
23410;SDS011;11878;51.774;7.220;2023-06-24T13:49:24;5.75;;;2.20;;
23410;SDS011;11878;51.774;7.220;2023-06-24T13:52:27;3.60;;;2.05;;
23410;SDS011;11878;51.774;7.220;2023-06-24T13:55:29;5.43;;;1.90;;
23410;SDS011;11878;51.774;7.220;2023-06-24T13:58:32;4.15;;;2.40;;
23410;SDS011;11878;51.774;7.220;2023-06-24T14:01:34;5.78;;;2.30;;
23410;SDS011;11878;51.774;7.220;2023-06-24T14:04:37;4.90;;;2.10;;
23410;SDS011;11878;51.774;7.220;2023-06-24T14:07:40;5.53;;;2.42;;
23410;SDS011;11878;51.774;7.220;2023-06-24T14:10:42;7.32;;;2.15;;
23410;SDS011;11878;51.774;7.220;2023-06-24T14:13:44;4.55;;;2.17;;
23410;SDS011;11878;51.774;7.220;2023-06-24T14:16:46;3.70;;;2.30;;
23410;SDS011;11878;51.774;7.220;2023-06-24T14:19:49;4.82;;;2.17;;
23410;SDS011;11878;51.774;7.220;2023-06-24T14:22:51;3.45;;;1.85;;
23410;SDS011;11878;51.774;7.220;2023-06-24T14:25:53;7.03;;;2.35;;
23410;SDS011;11878;51.774;7.220;2023-06-24T14:28:56;4.30;;;1.83;;
23410;SDS011;11878;51.774;7.220;2023-06-24T14:31:57;4.10;;;2.53;;
23410;SDS011;11878;51.774;7.220;2023-06-24T14:34:59;4.95;;;2.45;;
23410;SDS011;11878;51.774;7.220;2023-06-24T14:38:02;4.65;;;2.55;;
23410;SDS011;11878;51.774;7.220;2023-06-24T14:41:04;6.55;;;2.58;;
23410;SDS011;11878;51.774;7.220;2023-06-24T14:44:05;3.95;;;1.98;;
23410;SDS011;11878;51.774;7.220;2023-06-24T14:47:07;4.15;;;2.30;;
23410;SDS011;11878;51.774;7.220;2023-06-24T14:50:11;3.03;;;1.50;;
23410;SDS011;11878;51.774;7.220;2023-06-24T14:53:13;3.17;;;1.60;;
23410;SDS011;11878;51.774;7.220;2023-06-24T14:56:15;2.88;;;1.42;;
23410;SDS011;11878;51.774;7.220;2023-06-24T14:59:17;3.38;;;1.83;;
23410;SDS011;11878;51.774;7.220;2023-06-24T15:02:19;2.92;;;1.80;;
23410;SDS011;11878;51.774;7.220;2023-06-24T15:05:20;2.92;;;1.73;;
23410;SDS011;11878;51.774;7.220;2023-06-24T15:08:22;4.22;;;2.20;;
23410;SDS011;11878;51.774;7.220;2023-06-24T15:11:27;4.93;;;1.85;;
23410;SDS011;11878;51.774;7.220;2023-06-24T15:14:29;4.35;;;1.88;;
23410;SDS011;11878;51.774;7.220;2023-06-24T15:17:30;3.67;;;2.03;;
23410;SDS011;11878;51.774;7.220;2023-06-24T15:20:35;3.60;;;1.60;;
23410;SDS011;11878;51.774;7.220;2023-06-24T15:23:38;3.55;;;1.77;;
23410;SDS011;11878;51.774;7.220;2023-06-24T15:26:40;3.90;;;2.00;;
23410;SDS011;11878;51.774;7.220;2023-06-24T15:29:41;2.95;;;1.70;;
23410;SDS011;11878;51.774;7.220;2023-06-24T15:32:43;3.80;;;1.67;;
23410;SDS011;11878;51.774;7.220;2023-06-24T15:35:47;2.65;;;1.70;;
23410;SDS011;11878;51.774;7.220;2023-06-24T15:38:49;4.47;;;2.03;;
23410;SDS011;11878;51.774;7.220;2023-06-24T15:41:51;3.55;;;1.92;;
23410;SDS011;11878;51.774;7.220;2023-06-24T15:44:53;3.28;;;1.70;;
23410;SDS011;11878;51.774;7.220;2023-06-24T15:47:55;3.42;;;1.75;;
23410;SDS011;11878;51.774;7.220;2023-06-24T15:50:58;3.20;;;1.75;;
23410;SDS011;11878;51.774;7.220;2023-06-24T15:54:01;2.80;;;1.70;;
23410;SDS011;11878;51.774;7.220;2023-06-24T15:57:03;4.32;;;2.15;;
23410;SDS011;11878;51.774;7.220;2023-06-24T16:00:05;2.40;;;1.60;;
23410;SDS011;11878;51.774;7.220;2023-06-24T16:03:16;2.80;;;1.90;;
23410;SDS011;11878;51.774;7.220;2023-06-24T16:06:18;5.57;;;1.70;;
23410;SDS011;11878;51.774;7.220;2023-06-24T16:09:21;3.70;;;1.95;;
23410;SDS011;11878;51.774;7.220;2023-06-24T16:12:23;3.22;;;1.80;;
23410;SDS011;11878;51.774;7.220;2023-06-24T16:15:24;2.50;;;1.60;;
23410;SDS011;11878;51.774;7.220;2023-06-24T16:18:26;2.92;;;1.58;;
23410;SDS011;11878;51.774;7.220;2023-06-24T16:21:28;3.22;;;1.45;;
23410;SDS011;11878;51.774;7.220;2023-06-24T16:24:30;2.65;;;1.45;;
23410;SDS011;11878;51.774;7.220;2023-06-24T16:27:32;4.32;;;2.17;;
23410;SDS011;11878;51.774;7.220;2023-06-24T16:30:35;4.78;;;1.40;;
23410;SDS011;11878;51.774;7.220;2023-06-24T16:33:42;2.78;;;1.90;;
23410;SDS011;11878;51.774;7.220;2023-06-24T16:36:44;2.08;;;1.20;;
23410;SDS011;11878;51.774;7.220;2023-06-24T16:39:49;2.67;;;1.58;;
23410;SDS011;11878;51.774;7.220;2023-06-24T16:42:50;4.95;;;1.55;;
23410;SDS011;11878;51.774;7.220;2023-06-24T16:45:52;2.75;;;1.65;;
23410;SDS011;11878;51.774;7.220;2023-06-24T16:48:54;3.28;;;1.50;;
23410;SDS011;11878;51.774;7.220;2023-06-24T16:51:58;2.95;;;2.00;;
23410;SDS011;11878;51.774;7.220;2023-06-24T16:55:01;3.30;;;2.00;;
23410;SDS011;11878;51.774;7.220;2023-06-24T16:58:04;4.60;;;2.03;;
23410;SDS011;11878;51.774;7.220;2023-06-24T17:01:11;3.92;;;1.70;;
23410;SDS011;11878;51.774;7.220;2023-06-24T17:04:13;3.42;;;1.80;;
23410;SDS011;11878;51.774;7.220;2023-06-24T17:07:15;3.67;;;1.95;;
23410;SDS011;11878;51.774;7.220;2023-06-24T17:10:17;3.13;;;1.90;;
23410;SDS011;11878;51.774;7.220;2023-06-24T17:13:19;5.22;;;1.80;;
23410;SDS011;11878;51.774;7.220;2023-06-24T17:16:21;4.55;;;1.75;;
23410;SDS011;11878;51.774;7.220;2023-06-24T17:19:23;3.28;;;1.80;;
23410;SDS011;11878;51.774;7.220;2023-06-24T17:22:25;3.28;;;1.58;;
23410;SDS011;11878;51.774;7.220;2023-06-24T17:25:27;2.75;;;1.60;;
23410;SDS011;11878;51.774;7.220;2023-06-24T17:28:29;3.42;;;1.58;;
23410;SDS011;11878;51.774;7.220;2023-06-24T17:31:31;4.03;;;1.60;;
23410;SDS011;11878;51.774;7.220;2023-06-24T17:34:33;3.20;;;1.80;;
23410;SDS011;11878;51.774;7.220;2023-06-24T17:37:35;3.45;;;1.80;;
23410;SDS011;11878;51.774;7.220;2023-06-24T17:40:37;2.53;;;1.48;;
23410;SDS011;11878;51.774;7.220;2023-06-24T17:43:41;2.72;;;1.60;;
23410;SDS011;11878;51.774;7.220;2023-06-24T17:46:43;3.72;;;2.28;;
23410;SDS011;11878;51.774;7.220;2023-06-24T17:49:45;3.17;;;2.20;;
23410;SDS011;11878;51.774;7.220;2023-06-24T17:52:47;3.75;;;1.67;;
23410;SDS011;11878;51.774;7.220;2023-06-24T17:55:52;3.22;;;1.92;;
23410;SDS011;11878;51.774;7.220;2023-06-24T17:58:54;3.20;;;1.80;;
23410;SDS011;11878;51.774;7.220;2023-06-24T18:01:55;3.42;;;1.90;;
23410;SDS011;11878;51.774;7.220;2023-06-24T18:04:58;3.58;;;1.80;;
23410;SDS011;11878;51.774;7.220;2023-06-24T18:08:00;4.05;;;1.83;;
23410;SDS011;11878;51.774;7.220;2023-06-24T18:11:02;3.13;;;2.00;;
23410;SDS011;11878;51.774;7.220;2023-06-24T18:14:06;3.42;;;2.03;;
23410;SDS011;11878;51.774;7.220;2023-06-24T18:17:11;2.75;;;1.80;;
23410;SDS011;11878;51.774;7.220;2023-06-24T18:20:13;3.78;;;1.85;;
23410;SDS011;11878;51.774;7.220;2023-06-24T18:23:15;3.35;;;1.90;;
23410;SDS011;11878;51.774;7.220;2023-06-24T18:26:20;4.30;;;2.30;;
23410;SDS011;11878;51.774;7.220;2023-06-24T18:29:27;5.13;;;2.30;;
23410;SDS011;11878;51.774;7.220;2023-06-24T18:32:29;4.28;;;2.00;;
23410;SDS011;11878;51.774;7.220;2023-06-24T18:35:31;3.88;;;2.03;;